Wilton, North Dakota
Current Conditions -  °F | °C
As of 2:52 PM on Friday 19 Dec 2014 (Local Time) from KBIS Reporting Station
Clear Clear  
Wind Chill: 38°   Ceiling: Unl
Heat Index: 38°   Visibility: 10mi
Dew Point: 28°   Wind: 0mph
Humidity: 68%   Direction: NA
Pressure: 29.92"   Gusts: NA
Location:  47.16°N, 100.78°W
Report Text: KBIS 192052Z 00000KT 10SM CLR 03/M02 A2992 RMK AO2 SLP155 T00331022 56008
Loading
Personal Weather Stations






























Interactive Weather Map New forecast layout! Learn more

10-Day Weather Forecast

Advertisements
Track Severe Weather on mobile